Aeroporto :







RITROVATECI SU...

 
LOGIN :

Iscrizione | Disclaimer

   EN    FR    IT 

 









Sommario :    VFR   VFR Marginale   IFR   IFR Intensivo   IFR Molto Intensivo
Visibilità : 
Base nubi : 
>= 8 km
>= 3000ft
5 / 8 km
1000 / 3000 ft
1500m / 5 km
500 / 1000 ft
800 / 1500m
200 / 500 ft
< 800m
< 200 ft
Simboli :   Temporali  Nebbia  Neve Forte  Precipitazioni Forti  Vento > 20 kt






- Altitudine del aeroporto : 199 ft
- Codice IATA : YRQ


CYRQ - Trois-Rivières

ULTIMO METAR :
  • 250900Z AUTO 18004KT 9SM BKN210 BKN240 15/10 A3020 RMK SLP227

METARs OBSOLETI :
  • 250800Z AUTO 18006KT 9SM CLR 16/10 A3019 RMK SLP226
  • 250700Z AUTO 20004KT 180V240 9SM CLR 17/11 A3019 RMK SLP226 DENSITY ALT 200FT

TAF TAF CYRQ
Valido dal 25 a 08 ore il 25 a 20 ore UTC


250738Z 2508/2520 19008KT P6SM FEW120
BECMG 2511/2513 20010G20KT BKN060 OVC120
FM251600 20008G18KT P6SM BKN060 OVC120 RMK FCST BASED ON AUTO OBS. NXT FCST BY 251400Z
FIR CZUL / America del Nord



MetMap, La meteo Aeronautica in un colpo d'occhio ! - Copyright ORBIFLY Dicembre 2007 - Disclaimer

ORBIFLY MET'MAP TEAM :

Programmazione e sviluppo : Alexandra Zaïnal
Concezione : Baudouin d'Aumeries
Aiuto per la programmazione : Marc-Olivier Méhu
Supporto tecnico e logistico : Manuel Goepfert
Aiuto per la traduzione : Arnaldo La Scala

Contatto : metmap@orbifly.com




FONTI E CREDITI :

   NOAA